sensor_id;sensor_type;location;lat;lon;timestamp;temperature;humidity
52575;DHT22;38468;48.114;-1.684;2023-04-25T00:01:05;9.70;74.80
52575;DHT22;38468;48.114;-1.684;2023-04-25T00:03:06;9.70;74.80
52575;DHT22;38468;48.114;-1.684;2023-04-25T00:05:09;9.70;74.70
52575;DHT22;38468;48.114;-1.684;2023-04-25T00:07:10;9.70;74.80
52575;DHT22;38468;48.114;-1.684;2023-04-25T00:09:11;9.70;75.00
52575;DHT22;38468;48.114;-1.684;2023-04-25T00:11:12;9.70;74.60
52575;DHT22;38468;48.114;-1.684;2023-04-25T00:13:13;9.70;74.90
52575;DHT22;38468;48.114;-1.684;2023-04-25T00:15:15;9.60;74.80
52575;DHT22;38468;48.114;-1.684;2023-04-25T00:17:16;9.70;74.50
52575;DHT22;38468;48.114;-1.684;2023-04-25T00:19:17;9.70;74.80
52575;DHT22;38468;48.114;-1.684;2023-04-25T00:21:18;9.70;74.80
52575;DHT22;38468;48.114;-1.684;2023-04-25T00:23:20;9.60;74.70
52575;DHT22;38468;48.114;-1.684;2023-04-25T00:25:20;9.60;74.90
52575;DHT22;38468;48.114;-1.684;2023-04-25T00:27:21;9.50;75.10
52575;DHT22;38468;48.114;-1.684;2023-04-25T00:29:22;9.50;75.10
52575;DHT22;38468;48.114;-1.684;2023-04-25T00:31:22;9.50;75.40
52575;DHT22;38468;48.114;-1.684;2023-04-25T00:33:23;9.60;75.10
52575;DHT22;38468;48.114;-1.684;2023-04-25T00:35:23;9.50;75.10
52575;DHT22;38468;48.114;-1.684;2023-04-25T00:37:24;9.50;75.30
52575;DHT22;38468;48.114;-1.684;2023-04-25T00:39:25;9.50;75.60
52575;DHT22;38468;48.114;-1.684;2023-04-25T00:41:26;9.50;75.30
52575;DHT22;38468;48.114;-1.684;2023-04-25T00:43:27;9.50;75.40
52575;DHT22;38468;48.114;-1.684;2023-04-25T00:45:29;9.40;75.80
52575;DHT22;38468;48.114;-1.684;2023-04-25T00:47:30;9.40;75.60
52575;DHT22;38468;48.114;-1.684;2023-04-25T00:49:32;9.40;75.40
52575;DHT22;38468;48.114;-1.684;2023-04-25T00:51:33;9.40;75.70
52575;DHT22;38468;48.114;-1.684;2023-04-25T00:53:34;9.30;75.70
52575;DHT22;38468;48.114;-1.684;2023-04-25T00:55:36;9.30;75.90
52575;DHT22;38468;48.114;-1.684;2023-04-25T00:57:37;9.30;75.90
52575;DHT22;38468;48.114;-1.684;2023-04-25T00:59:38;9.30;76.20
52575;DHT22;38468;48.114;-1.684;2023-04-25T01:01:39;9.30;76.20
52575;DHT22;38468;48.114;-1.684;2023-04-25T01:03:40;9.40;75.40
52575;DHT22;38468;48.114;-1.684;2023-04-25T01:05:41;9.30;75.70
52575;DHT22;38468;48.114;-1.684;2023-04-25T01:07:42;9.30;75.80
52575;DHT22;38468;48.114;-1.684;2023-04-25T01:09:43;9.20;76.00
52575;DHT22;38468;48.114;-1.684;2023-04-25T01:11:44;9.20;76.10
52575;DHT22;38468;48.114;-1.684;2023-04-25T01:13:45;9.20;76.10
52575;DHT22;38468;48.114;-1.684;2023-04-25T01:15:45;9.20;75.90
52575;DHT22;38468;48.114;-1.684;2023-04-25T01:17:46;9.20;75.80
52575;DHT22;38468;48.114;-1.684;2023-04-25T01:19:47;9.20;75.80
52575;DHT22;38468;48.114;-1.684;2023-04-25T01:21:49;9.20;75.90
52575;DHT22;38468;48.114;-1.684;2023-04-25T01:23:50;9.20;75.70
52575;DHT22;38468;48.114;-1.684;2023-04-25T01:25:52;9.20;76.10
52575;DHT22;38468;48.114;-1.684;2023-04-25T01:27:53;9.10;76.10
52575;DHT22;38468;48.114;-1.684;2023-04-25T01:29:54;9.00;76.40
52575;DHT22;38468;48.114;-1.684;2023-04-25T01:31:55;9.10;76.20
52575;DHT22;38468;48.114;-1.684;2023-04-25T01:33:56;9.10;76.60
52575;DHT22;38468;48.114;-1.684;2023-04-25T01:35:57;9.00;76.90
52575;DHT22;38468;48.114;-1.684;2023-04-25T01:37:58;9.00;76.60
52575;DHT22;38468;48.114;-1.684;2023-04-25T01:39:59;9.10;76.50
52575;DHT22;38468;48.114;-1.684;2023-04-25T01:42:00;9.00;76.80
52575;DHT22;38468;48.114;-1.684;2023-04-25T01:44:01;9.00;77.00
52575;DHT22;38468;48.114;-1.684;2023-04-25T01:46:02;9.00;76.80
52575;DHT22;38468;48.114;-1.684;2023-04-25T01:48:03;9.00;76.70
52575;DHT22;38468;48.114;-1.684;2023-04-25T01:50:05;9.00;76.90
52575;DHT22;38468;48.114;-1.684;2023-04-25T01:52:06;9.00;76.80
52575;DHT22;38468;48.114;-1.684;2023-04-25T01:54:08;9.10;76.00
52575;DHT22;38468;48.114;-1.684;2023-04-25T01:56:09;9.10;76.40
52575;DHT22;38468;48.114;-1.684;2023-04-25T01:58:10;9.10;76.50
52575;DHT22;38468;48.114;-1.684;2023-04-25T02:00:13;9.00;76.40
52575;DHT22;38468;48.114;-1.684;2023-04-25T02:02:13;8.90;76.90
52575;DHT22;38468;48.114;-1.684;2023-04-25T02:04:14;8.80;77.20
52575;DHT22;38468;48.114;-1.684;2023-04-25T02:06:15;8.90;77.00
52575;DHT22;38468;48.114;-1.684;2023-04-25T02:08:16;8.90;76.80
52575;DHT22;38468;48.114;-1.684;2023-04-25T02:10:17;8.90;76.50
52575;DHT22;38468;48.114;-1.684;2023-04-25T02:12:17;8.90;76.60
52575;DHT22;38468;48.114;-1.684;2023-04-25T02:14:18;8.90;76.10
52575;DHT22;38468;48.114;-1.684;2023-04-25T02:16:19;8.90;76.40
52575;DHT22;38468;48.114;-1.684;2023-04-25T02:18:19;8.90;76.70
52575;DHT22;38468;48.114;-1.684;2023-04-25T02:20:22;8.80;77.00
52575;DHT22;38468;48.114;-1.684;2023-04-25T02:22:23;8.90;76.50
52575;DHT22;38468;48.114;-1.684;2023-04-25T02:24:24;8.90;76.40
52575;DHT22;38468;48.114;-1.684;2023-04-25T02:26:24;8.90;76.80
52575;DHT22;38468;48.114;-1.684;2023-04-25T02:28:25;8.90;76.20
52575;DHT22;38468;48.114;-1.684;2023-04-25T02:30:28;8.90;76.40
52575;DHT22;38468;48.114;-1.684;2023-04-25T02:32:29;8.90;76.00
52575;DHT22;38468;48.114;-1.684;2023-04-25T02:34:30;8.90;76.10
52575;DHT22;38468;48.114;-1.684;2023-04-25T02:36:31;8.90;76.40
52575;DHT22;38468;48.114;-1.684;2023-04-25T02:38:34;8.80;76.50
52575;DHT22;38468;48.114;-1.684;2023-04-25T02:40:35;8.80;76.50
52575;DHT22;38468;48.114;-1.684;2023-04-25T02:42:36;8.80;76.60
52575;DHT22;38468;48.114;-1.684;2023-04-25T02:44:36;8.80;76.20
52575;DHT22;38468;48.114;-1.684;2023-04-25T02:46:37;8.80;76.00
52575;DHT22;38468;48.114;-1.684;2023-04-25T02:48:38;8.80;76.30
52575;DHT22;38468;48.114;-1.684;2023-04-25T02:50:38;8.70;76.90
52575;DHT22;38468;48.114;-1.684;2023-04-25T02:52:39;8.70;76.70
52575;DHT22;38468;48.114;-1.684;2023-04-25T02:54:40;8.70;76.70
52575;DHT22;38468;48.114;-1.684;2023-04-25T02:56:40;8.70;76.40
52575;DHT22;38468;48.114;-1.684;2023-04-25T02:58:41;8.70;76.60
52575;DHT22;38468;48.114;-1.684;2023-04-25T03:00:42;8.70;76.20
52575;DHT22;38468;48.114;-1.684;2023-04-25T03:02:42;8.80;76.20
52575;DHT22;38468;48.114;-1.684;2023-04-25T03:04:43;8.70;76.40
52575;DHT22;38468;48.114;-1.684;2023-04-25T03:06:43;8.60;76.60
52575;DHT22;38468;48.114;-1.684;2023-04-25T03:08:44;8.70;76.30
52575;DHT22;38468;48.114;-1.684;2023-04-25T03:10:45;8.80;76.00
52575;DHT22;38468;48.114;-1.684;2023-04-25T03:12:46;8.70;76.30
52575;DHT22;38468;48.114;-1.684;2023-04-25T03:14:46;8.70;76.10
52575;DHT22;38468;48.114;-1.684;2023-04-25T03:16:47;8.70;76.20
52575;DHT22;38468;48.114;-1.684;2023-04-25T03:18:48;8.60;76.50
52575;DHT22;38468;48.114;-1.684;2023-04-25T03:20:50;8.50;76.40
52575;DHT22;38468;48.114;-1.684;2023-04-25T03:22:51;8.60;76.60
52575;DHT22;38468;48.114;-1.684;2023-04-25T03:24:51;8.50;76.60
52575;DHT22;38468;48.114;-1.684;2023-04-25T03:26:52;8.60;76.40
52575;DHT22;38468;48.114;-1.684;2023-04-25T03:28:53;8.50;76.20
52575;DHT22;38468;48.114;-1.684;2023-04-25T03:30:53;8.60;76.30
52575;DHT22;38468;48.114;-1.684;2023-04-25T03:32:54;8.50;76.30
52575;DHT22;38468;48.114;-1.684;2023-04-25T03:34:55;8.50;76.70
52575;DHT22;38468;48.114;-1.684;2023-04-25T03:36:56;8.50;76.60
52575;DHT22;38468;48.114;-1.684;2023-04-25T03:38:56;8.50;76.80
52575;DHT22;38468;48.114;-1.684;2023-04-25T03:40:57;8.50;76.50
52575;DHT22;38468;48.114;-1.684;2023-04-25T03:42:58;8.50;76.40
52575;DHT22;38468;48.114;-1.684;2023-04-25T03:44:58;8.50;76.40
52575;DHT22;38468;48.114;-1.684;2023-04-25T03:46:59;8.40;76.40
52575;DHT22;38468;48.114;-1.684;2023-04-25T03:49:00;8.40;76.60
52575;DHT22;38468;48.114;-1.684;2023-04-25T03:51:06;8.40;76.40
52575;DHT22;38468;48.114;-1.684;2023-04-25T03:53:06;8.40;76.40
52575;DHT22;38468;48.114;-1.684;2023-04-25T03:55:07;8.40;76.40
52575;DHT22;38468;48.114;-1.684;2023-04-25T03:57:08;8.40;76.50
52575;DHT22;38468;48.114;-1.684;2023-04-25T03:59:09;8.40;76.40
52575;DHT22;38468;48.114;-1.684;2023-04-25T04:01:09;8.40;76.80
52575;DHT22;38468;48.114;-1.684;2023-04-25T04:03:10;8.40;76.70
52575;DHT22;38468;48.114;-1.684;2023-04-25T04:05:11;8.40;76.80
52575;DHT22;38468;48.114;-1.684;2023-04-25T04:07:12;8.30;76.70
52575;DHT22;38468;48.114;-1.684;2023-04-25T04:09:13;8.30;76.70
52575;DHT22;38468;48.114;-1.684;2023-04-25T04:11:14;8.30;76.80
52575;DHT22;38468;48.114;-1.684;2023-04-25T04:13:14;8.20;77.10
52575;DHT22;38468;48.114;-1.684;2023-04-25T04:15:15;8.20;77.50
52575;DHT22;38468;48.114;-1.684;2023-04-25T04:17:15;8.20;77.60
52575;DHT22;38468;48.114;-1.684;2023-04-25T04:19:16;8.20;77.40
52575;DHT22;38468;48.114;-1.684;2023-04-25T04:21:17;8.30;77.10
52575;DHT22;38468;48.114;-1.684;2023-04-25T04:23:18;8.20;77.50
52575;DHT22;38468;48.114;-1.684;2023-04-25T04:25:19;8.20;77.70
52575;DHT22;38468;48.114;-1.684;2023-04-25T04:27:21;8.20;77.50
52575;DHT22;38468;48.114;-1.684;2023-04-25T04:29:21;8.20;76.90
52575;DHT22;38468;48.114;-1.684;2023-04-25T04:31:22;8.20;77.40
52575;DHT22;38468;48.114;-1.684;2023-04-25T04:33:24;8.20;77.00
52575;DHT22;38468;48.114;-1.684;2023-04-25T04:35:24;8.20;77.00
52575;DHT22;38468;48.114;-1.684;2023-04-25T04:37:25;8.20;76.90
52575;DHT22;38468;48.114;-1.684;2023-04-25T04:39:26;8.20;77.30
52575;DHT22;38468;48.114;-1.684;2023-04-25T04:41:26;8.20;77.50
52575;DHT22;38468;48.114;-1.684;2023-04-25T04:43:27;8.20;77.70
52575;DHT22;38468;48.114;-1.684;2023-04-25T04:45:28;8.20;77.60
52575;DHT22;38468;48.114;-1.684;2023-04-25T04:47:29;8.20;77.40
52575;DHT22;38468;48.114;-1.684;2023-04-25T04:49:34;8.20;77.40
52575;DHT22;38468;48.114;-1.684;2023-04-25T04:51:37;8.20;77.10
52575;DHT22;38468;48.114;-1.684;2023-04-25T04:53:38;8.30;77.30
52575;DHT22;38468;48.114;-1.684;2023-04-25T04:55:38;8.20;77.60
52575;DHT22;38468;48.114;-1.684;2023-04-25T04:57:39;8.30;77.40
52575;DHT22;38468;48.114;-1.684;2023-04-25T04:59:40;8.30;77.30
52575;DHT22;38468;48.114;-1.684;2023-04-25T05:01:40;8.30;77.10
52575;DHT22;38468;48.114;-1.684;2023-04-25T05:03:41;8.40;77.00
52575;DHT22;38468;48.114;-1.684;2023-04-25T05:05:42;8.20;77.20
52575;DHT22;38468;48.114;-1.684;2023-04-25T05:07:42;8.30;77.30
52575;DHT22;38468;48.114;-1.684;2023-04-25T05:09:43;8.30;77.10
52575;DHT22;38468;48.114;-1.684;2023-04-25T05:11:43;8.20;77.30
52575;DHT22;38468;48.114;-1.684;2023-04-25T05:13:44;8.20;77.90
52575;DHT22;38468;48.114;-1.684;2023-04-25T05:15:46;8.10;77.90
52575;DHT22;38468;48.114;-1.684;2023-04-25T05:17:47;8.10;77.80
52575;DHT22;38468;48.114;-1.684;2023-04-25T05:19:47;8.10;78.10
52575;DHT22;38468;48.114;-1.684;2023-04-25T05:21:48;8.10;78.00
52575;DHT22;38468;48.114;-1.684;2023-04-25T05:23:49;8.20;77.80
52575;DHT22;38468;48.114;-1.684;2023-04-25T05:25:49;8.10;77.80
52575;DHT22;38468;48.114;-1.684;2023-04-25T05:27:50;8.10;77.70
52575;DHT22;38468;48.114;-1.684;2023-04-25T05:29:52;8.10;77.80
52575;DHT22;38468;48.114;-1.684;2023-04-25T05:31:53;8.20;77.70
52575;DHT22;38468;48.114;-1.684;2023-04-25T05:33:54;8.20;77.70
52575;DHT22;38468;48.114;-1.684;2023-04-25T05:35:55;8.20;77.40
52575;DHT22;38468;48.114;-1.684;2023-04-25T05:37:55;8.20;77.70
52575;DHT22;38468;48.114;-1.684;2023-04-25T05:39:56;8.30;77.70
52575;DHT22;38468;48.114;-1.684;2023-04-25T05:41:57;8.30;77.50
52575;DHT22;38468;48.114;-1.684;2023-04-25T05:43:57;8.30;77.20
52575;DHT22;38468;48.114;-1.684;2023-04-25T05:45:58;8.30;77.30
52575;DHT22;38468;48.114;-1.684;2023-04-25T05:47:59;8.30;76.90
52575;DHT22;38468;48.114;-1.684;2023-04-25T05:50:00;8.30;76.90
52575;DHT22;38468;48.114;-1.684;2023-04-25T05:52:00;8.30;77.10
52575;DHT22;38468;48.114;-1.684;2023-04-25T05:54:01;8.30;77.00
52575;DHT22;38468;48.114;-1.684;2023-04-25T05:56:02;8.30;77.00
52575;DHT22;38468;48.114;-1.684;2023-04-25T05:58:03;8.30;77.20
52575;DHT22;38468;48.114;-1.684;2023-04-25T06:00:04;8.40;77.20
52575;DHT22;38468;48.114;-1.684;2023-04-25T06:02:09;8.40;77.40
52575;DHT22;38468;48.114;-1.684;2023-04-25T06:04:09;8.30;77.30
52575;DHT22;38468;48.114;-1.684;2023-04-25T06:06:11;8.40;77.30
52575;DHT22;38468;48.114;-1.684;2023-04-25T06:08:12;8.40;77.40
52575;DHT22;38468;48.114;-1.684;2023-04-25T06:10:12;8.40;77.00
52575;DHT22;38468;48.114;-1.684;2023-04-25T06:12:13;8.40;76.80
52575;DHT22;38468;48.114;-1.684;2023-04-25T06:14:14;8.40;76.80
52575;DHT22;38468;48.114;-1.684;2023-04-25T06:16:14;8.50;76.90
52575;DHT22;38468;48.114;-1.684;2023-04-25T06:18:16;8.50;77.00
52575;DHT22;38468;48.114;-1.684;2023-04-25T06:20:22;8.50;77.00
52575;DHT22;38468;48.114;-1.684;2023-04-25T06:22:24;8.60;76.80
52575;DHT22;38468;48.114;-1.684;2023-04-25T06:24:25;8.50;77.50
52575;DHT22;38468;48.114;-1.684;2023-04-25T06:26:26;8.70;77.20
52575;DHT22;38468;48.114;-1.684;2023-04-25T06:28:26;8.70;77.10
52575;DHT22;38468;48.114;-1.684;2023-04-25T06:30:27;8.80;77.00
52575;DHT22;38468;48.114;-1.684;2023-04-25T06:32:28;8.90;77.00
52575;DHT22;38468;48.114;-1.684;2023-04-25T06:34:30;8.90;76.70
52575;DHT22;38468;48.114;-1.684;2023-04-25T06:36:30;9.00;76.60
52575;DHT22;38468;48.114;-1.684;2023-04-25T06:38:31;9.20;76.30
52575;DHT22;38468;48.114;-1.684;2023-04-25T06:40:32;9.20;76.40
52575;DHT22;38468;48.114;-1.684;2023-04-25T06:42:32;9.30;76.40
52575;DHT22;38468;48.114;-1.684;2023-04-25T06:44:33;9.40;76.30
52575;DHT22;38468;48.114;-1.684;2023-04-25T06:46:34;9.50;76.10
52575;DHT22;38468;48.114;-1.684;2023-04-25T06:48:34;9.60;75.70
52575;DHT22;38468;48.114;-1.684;2023-04-25T06:50:35;9.70;75.60
52575;DHT22;38468;48.114;-1.684;2023-04-25T06:52:36;9.90;75.60
52575;DHT22;38468;48.114;-1.684;2023-04-25T06:54:36;10.00;75.00
52575;DHT22;38468;48.114;-1.684;2023-04-25T06:56:37;10.00;74.90
52575;DHT22;38468;48.114;-1.684;2023-04-25T06:58:38;10.10;74.80
52575;DHT22;38468;48.114;-1.684;2023-04-25T07:00:38;10.10;74.80
52575;DHT22;38468;48.114;-1.684;2023-04-25T07:02:39;10.20;74.80
52575;DHT22;38468;48.114;-1.684;2023-04-25T07:04:40;10.30;74.90
52575;DHT22;38468;48.114;-1.684;2023-04-25T07:06:41;10.30;74.60
52575;DHT22;38468;48.114;-1.684;2023-04-25T07:08:43;10.40;74.40
52575;DHT22;38468;48.114;-1.684;2023-04-25T07:10:43;10.50;74.40
52575;DHT22;38468;48.114;-1.684;2023-04-25T07:12:46;10.50;74.40
52575;DHT22;38468;48.114;-1.684;2023-04-25T07:14:47;10.60;74.40
52575;DHT22;38468;48.114;-1.684;2023-04-25T07:16:47;10.70;74.10
52575;DHT22;38468;48.114;-1.684;2023-04-25T07:18:48;10.70;73.90
52575;DHT22;38468;48.114;-1.684;2023-04-25T07:20:48;10.80;73.80
52575;DHT22;38468;48.114;-1.684;2023-04-25T07:22:49;10.90;73.50
52575;DHT22;38468;48.114;-1.684;2023-04-25T07:24:50;11.00;73.70
52575;DHT22;38468;48.114;-1.684;2023-04-25T07:26:51;11.20;73.60
52575;DHT22;38468;48.114;-1.684;2023-04-25T07:28:51;11.40;72.90
52575;DHT22;38468;48.114;-1.684;2023-04-25T07:30:52;11.40;72.40
52575;DHT22;38468;48.114;-1.684;2023-04-25T07:32:53;11.50;72.30
52575;DHT22;38468;48.114;-1.684;2023-04-25T07:34:53;11.60;72.10
52575;DHT22;38468;48.114;-1.684;2023-04-25T07:36:54;11.60;72.00
52575;DHT22;38468;48.114;-1.684;2023-04-25T07:38:54;11.70;72.20
52575;DHT22;38468;48.114;-1.684;2023-04-25T07:40:55;11.70;71.80
52575;DHT22;38468;48.114;-1.684;2023-04-25T07:42:56;11.90;71.60
52575;DHT22;38468;48.114;-1.684;2023-04-25T07:44:56;11.80;71.20
52575;DHT22;38468;48.114;-1.684;2023-04-25T07:46:57;11.90;71.10
52575;DHT22;38468;48.114;-1.684;2023-04-25T07:48:58;11.90;70.60
52575;DHT22;38468;48.114;-1.684;2023-04-25T07:50:58;11.90;70.70
52575;DHT22;38468;48.114;-1.684;2023-04-25T07:52:59;12.00;70.90
52575;DHT22;38468;48.114;-1.684;2023-04-25T07:55:00;11.90;70.30
52575;DHT22;38468;48.114;-1.684;2023-04-25T07:57:00;12.00;70.20
52575;DHT22;38468;48.114;-1.684;2023-04-25T07:59:02;12.10;70.20
52575;DHT22;38468;48.114;-1.684;2023-04-25T08:01:03;12.20;70.30
52575;DHT22;38468;48.114;-1.684;2023-04-25T08:03:04;12.30;69.70
52575;DHT22;38468;48.114;-1.684;2023-04-25T08:05:04;12.30;69.50
52575;DHT22;38468;48.114;-1.684;2023-04-25T08:07:08;12.40;69.10
52575;DHT22;38468;48.114;-1.684;2023-04-25T08:09:09;12.60;68.80
52575;DHT22;38468;48.114;-1.684;2023-04-25T08:11:09;12.80;69.10
52575;DHT22;38468;48.114;-1.684;2023-04-25T08:13:10;12.60;67.80
52575;DHT22;38468;48.114;-1.684;2023-04-25T08:15:11;12.60;67.70
52575;DHT22;38468;48.114;-1.684;2023-04-25T08:17:14;12.70;67.90
52575;DHT22;38468;48.114;-1.684;2023-04-25T08:19:14;12.60;67.50
52575;DHT22;38468;48.114;-1.684;2023-04-25T08:21:15;12.50;67.10
52575;DHT22;38468;48.114;-1.684;2023-04-25T08:23:16;12.50;67.40
52575;DHT22;38468;48.114;-1.684;2023-04-25T08:25:16;12.30;66.80
52575;DHT22;38468;48.114;-1.684;2023-04-25T08:27:18;12.40;68.00
52575;DHT22;38468;48.114;-1.684;2023-04-25T08:29:19;12.40;67.60
52575;DHT22;38468;48.114;-1.684;2023-04-25T08:31:20;12.40;67.40
52575;DHT22;38468;48.114;-1.684;2023-04-25T08:33:21;12.40;67.10
52575;DHT22;38468;48.114;-1.684;2023-04-25T08:35:21;12.50;67.20
52575;DHT22;38468;48.114;-1.684;2023-04-25T08:37:22;12.60;66.80
52575;DHT22;38468;48.114;-1.684;2023-04-25T08:39:23;12.60;66.40
52575;DHT22;38468;48.114;-1.684;2023-04-25T08:41:24;12.60;66.20
52575;DHT22;38468;48.114;-1.684;2023-04-25T08:43:25;12.50;66.00
52575;DHT22;38468;48.114;-1.684;2023-04-25T08:45:28;12.50;65.60
52575;DHT22;38468;48.114;-1.684;2023-04-25T08:47:33;12.50;65.80
52575;DHT22;38468;48.114;-1.684;2023-04-25T08:49:35;12.40;65.70
52575;DHT22;38468;48.114;-1.684;2023-04-25T08:51:44;12.20;65.80
52575;DHT22;38468;48.114;-1.684;2023-04-25T08:53:49;12.40;66.30
52575;DHT22;38468;48.114;-1.684;2023-04-25T08:55:51;12.50;66.10
52575;DHT22;38468;48.114;-1.684;2023-04-25T08:57:54;12.90;66.00
52575;DHT22;38468;48.114;-1.684;2023-04-25T08:59:55;13.10;65.40
52575;DHT22;38468;48.114;-1.684;2023-04-25T09:01:57;13.20;64.30
52575;DHT22;38468;48.114;-1.684;2023-04-25T09:03:57;13.00;62.80
52575;DHT22;38468;48.114;-1.684;2023-04-25T09:05:58;13.10;64.60
52575;DHT22;38468;48.114;-1.684;2023-04-25T09:07:59;13.40;63.40
52575;DHT22;38468;48.114;-1.684;2023-04-25T09:10:01;13.20;62.70
52575;DHT22;38468;48.114;-1.684;2023-04-25T09:12:03;13.30;63.70
52575;DHT22;38468;48.114;-1.684;2023-04-25T09:14:19;13.40;64.50
52575;DHT22;38468;48.114;-1.684;2023-04-25T09:16:20;13.20;63.60
52575;DHT22;38468;48.114;-1.684;2023-04-25T09:18:26;13.10;63.90
52575;DHT22;38468;48.114;-1.684;2023-04-25T09:20:28;13.10;64.30
52575;DHT22;38468;48.114;-1.684;2023-04-25T09:22:28;13.20;64.50
52575;DHT22;38468;48.114;-1.684;2023-04-25T09:26:34;13.20;63.70
52575;DHT22;38468;48.114;-1.684;2023-04-25T09:28:35;13.20;62.40
52575;DHT22;38468;48.114;-1.684;2023-04-25T09:30:36;12.80;61.70
52575;DHT22;38468;48.114;-1.684;2023-04-25T09:32:37;12.50;62.50
52575;DHT22;38468;48.114;-1.684;2023-04-25T09:34:39;12.50;63.40
52575;DHT22;38468;48.114;-1.684;2023-04-25T09:36:41;12.60;64.30
52575;DHT22;38468;48.114;-1.684;2023-04-25T09:38:46;12.80;63.70
52575;DHT22;38468;48.114;-1.684;2023-04-25T09:40:47;13.00;64.30
52575;DHT22;38468;48.114;-1.684;2023-04-25T09:42:50;13.00;64.10
52575;DHT22;38468;48.114;-1.684;2023-04-25T09:44:54;13.00;63.90
52575;DHT22;38468;48.114;-1.684;2023-04-25T09:46:56;13.20;64.20
52575;DHT22;38468;48.114;-1.684;2023-04-25T09:48:57;13.10;63.20
52575;DHT22;38468;48.114;-1.684;2023-04-25T09:51:12;13.10;63.30
52575;DHT22;38468;48.114;-1.684;2023-04-25T09:53:14;13.30;63.60
52575;DHT22;38468;48.114;-1.684;2023-04-25T09:55:15;13.50;63.10
52575;DHT22;38468;48.114;-1.684;2023-04-25T09:57:22;13.80;63.50
52575;DHT22;38468;48.114;-1.684;2023-04-25T09:59:23;13.80;61.20
52575;DHT22;38468;48.114;-1.684;2023-04-25T10:01:25;13.60;60.60
52575;DHT22;38468;48.114;-1.684;2023-04-25T10:03:26;13.60;61.00
52575;DHT22;38468;48.114;-1.684;2023-04-25T10:05:30;13.50;60.40
52575;DHT22;38468;48.114;-1.684;2023-04-25T10:07:33;13.40;60.40
52575;DHT22;38468;48.114;-1.684;2023-04-25T10:09:39;13.40;61.50
52575;DHT22;38468;48.114;-1.684;2023-04-25T10:11:40;13.40;62.20
52575;DHT22;38468;48.114;-1.684;2023-04-25T10:13:41;13.40;61.90
52575;DHT22;38468;48.114;-1.684;2023-04-25T10:15:43;13.40;62.10
52575;DHT22;38468;48.114;-1.684;2023-04-25T10:17:45;13.40;62.70
52575;DHT22;38468;48.114;-1.684;2023-04-25T10:19:47;13.40;62.40
52575;DHT22;38468;48.114;-1.684;2023-04-25T10:22:02;13.50;61.90
52575;DHT22;38468;48.114;-1.684;2023-04-25T10:24:04;13.70;61.50
52575;DHT22;38468;48.114;-1.684;2023-04-25T10:26:05;13.80;62.30
52575;DHT22;38468;48.114;-1.684;2023-04-25T10:28:06;13.90;61.60
52575;DHT22;38468;48.114;-1.684;2023-04-25T10:30:13;13.90;60.40
52575;DHT22;38468;48.114;-1.684;2023-04-25T10:32:15;14.00;60.10
52575;DHT22;38468;48.114;-1.684;2023-04-25T10:34:16;13.90;60.10
52575;DHT22;38468;48.114;-1.684;2023-04-25T10:36:19;13.80;59.80
52575;DHT22;38468;48.114;-1.684;2023-04-25T10:38:21;13.80;60.30
52575;DHT22;38468;48.114;-1.684;2023-04-25T10:40:22;13.70;59.20
52575;DHT22;38468;48.114;-1.684;2023-04-25T10:42:23;13.20;58.70
52575;DHT22;38468;48.114;-1.684;2023-04-25T10:44:28;13.40;59.00
52575;DHT22;38468;48.114;-1.684;2023-04-25T10:46:29;13.50;58.20
52575;DHT22;38468;48.114;-1.684;2023-04-25T10:48:32;13.50;58.50
52575;DHT22;38468;48.114;-1.684;2023-04-25T10:50:38;13.60;59.20
52575;DHT22;38468;48.114;-1.684;2023-04-25T10:52:40;13.70;58.70
52575;DHT22;38468;48.114;-1.684;2023-04-25T10:54:48;13.60;55.60
52575;DHT22;38468;48.114;-1.684;2023-04-25T10:56:50;13.60;57.30
52575;DHT22;38468;48.114;-1.684;2023-04-25T10:58:51;13.80;57.90
52575;DHT22;38468;48.114;-1.684;2023-04-25T11:00:51;14.00;58.50
52575;DHT22;38468;48.114;-1.684;2023-04-25T11:02:58;14.20;57.40
52575;DHT22;38468;48.114;-1.684;2023-04-25T11:04:59;14.20;56.90
52575;DHT22;38468;48.114;-1.684;2023-04-25T11:09:34;14.20;56.90
52575;DHT22;38468;48.114;-1.684;2023-04-25T11:11:36;14.40;57.00
52575;DHT22;38468;48.114;-1.684;2023-04-25T11:13:37;14.50;57.00
52575;DHT22;38468;48.114;-1.684;2023-04-25T11:15:37;14.50;56.50
52575;DHT22;38468;48.114;-1.684;2023-04-25T11:17:39;14.60;56.50
52575;DHT22;38468;48.114;-1.684;2023-04-25T11:19:40;14.60;56.00
52575;DHT22;38468;48.114;-1.684;2023-04-25T11:21:41;14.80;57.30
52575;DHT22;38468;48.114;-1.684;2023-04-25T11:23:45;15.00;57.20
52575;DHT22;38468;48.114;-1.684;2023-04-25T11:25:46;14.80;54.30
52575;DHT22;38468;48.114;-1.684;2023-04-25T11:27:54;14.90;55.60
52575;DHT22;38468;48.114;-1.684;2023-04-25T11:29:55;14.90;52.40
52575;DHT22;38468;48.114;-1.684;2023-04-25T11:31:56;14.60;53.30
52575;DHT22;38468;48.114;-1.684;2023-04-25T11:33:58;14.60;53.60
52575;DHT22;38468;48.114;-1.684;2023-04-25T11:35:59;14.50;54.80
52575;DHT22;38468;48.114;-1.684;2023-04-25T11:38:00;14.50;54.30
52575;DHT22;38468;48.114;-1.684;2023-04-25T11:40:02;14.50;55.20
52575;DHT22;38468;48.114;-1.684;2023-04-25T11:42:04;14.50;54.10
52575;DHT22;38468;48.114;-1.684;2023-04-25T11:44:06;14.40;54.60
52575;DHT22;38468;48.114;-1.684;2023-04-25T11:46:07;14.40;55.50
52575;DHT22;38468;48.114;-1.684;2023-04-25T11:48:08;14.40;56.60
52575;DHT22;38468;48.114;-1.684;2023-04-25T11:50:09;14.40;55.60
52575;DHT22;38468;48.114;-1.684;2023-04-25T11:52:10;14.20;55.90
52575;DHT22;38468;48.114;-1.684;2023-04-25T11:54:11;14.20;56.70
52575;DHT22;38468;48.114;-1.684;2023-04-25T11:56:13;13.90;57.40
52575;DHT22;38468;48.114;-1.684;2023-04-25T11:58:13;14.00;57.80
52575;DHT22;38468;48.114;-1.684;2023-04-25T12:00:16;14.00;57.70
52575;DHT22;38468;48.114;-1.684;2023-04-25T12:02:26;14.00;57.80
52575;DHT22;38468;48.114;-1.684;2023-04-25T12:04:30;14.00;57.40
52575;DHT22;38468;48.114;-1.684;2023-04-25T12:06:31;14.10;56.40
52575;DHT22;38468;48.114;-1.684;2023-04-25T12:08:32;14.10;56.60
52575;DHT22;38468;48.114;-1.684;2023-04-25T12:10:38;14.20;56.70
52575;DHT22;38468;48.114;-1.684;2023-04-25T12:12:43;14.20;56.30
52575;DHT22;38468;48.114;-1.684;2023-04-25T12:14:47;14.20;56.20
52575;DHT22;38468;48.114;-1.684;2023-04-25T12:16:51;14.20;55.90
52575;DHT22;38468;48.114;-1.684;2023-04-25T12:18:52;14.20;56.30
52575;DHT22;38468;48.114;-1.684;2023-04-25T12:20:54;14.00;55.20
52575;DHT22;38468;48.114;-1.684;2023-04-25T12:22:57;14.10;56.50
52575;DHT22;38468;48.114;-1.684;2023-04-25T12:24:57;14.10;55.70
52575;DHT22;38468;48.114;-1.684;2023-04-25T12:27:04;14.10;55.90
52575;DHT22;38468;48.114;-1.684;2023-04-25T12:29:16;14.10;55.50
52575;DHT22;38468;48.114;-1.684;2023-04-25T12:31:16;13.90;55.10
52575;DHT22;38468;48.114;-1.684;2023-04-25T12:33:17;13.90;55.50
52575;DHT22;38468;48.114;-1.684;2023-04-25T12:35:17;13.80;54.70
52575;DHT22;38468;48.114;-1.684;2023-04-25T12:37:18;13.80;55.90
52575;DHT22;38468;48.114;-1.684;2023-04-25T12:39:23;13.90;55.80
52575;DHT22;38468;48.114;-1.684;2023-04-25T12:41:24;13.90;55.10
52575;DHT22;38468;48.114;-1.684;2023-04-25T12:43:25;14.00;55.40
52575;DHT22;38468;48.114;-1.684;2023-04-25T12:45:26;14.00;54.90
52575;DHT22;38468;48.114;-1.684;2023-04-25T12:47:27;14.10;54.70